VKG48 EKRN-LGSK
Flight info
| Callsign | VKG48 |
|---|---|
| Flight time | N/A |
| Altitude | 35000 |
| Route | ROE L996 DENKO DCT VALPI DCT NIT DCT ALAMU DCT VEBOS DCT TONDO DCT RAXAD DCT SKP |
| Aircraft | A321/M-SDE2E3FGHIJ1RWXYZ/LB2 |
Departure
| Time | 2026-05-05 07:50 |
|---|---|
| Airport | Bornholm Airport (EKRN) |
Arrival
| Time | N/A |
|---|---|
| Airport | Skiathos Island National Airport (LGSK) |
| Time | Latitude | Longitude | Altitude | Speed | Heading |
|---|---|---|---|---|---|
| 2026-05-05 07:27 | 55.06888 | 14.74814 | 54 ft | 0 kts | 163° |
| 2026-05-05 07:46 | 55.06888 | 14.74815 | 53 ft | 1 kts | 163° |
| 2026-05-05 07:46 | 55.06864 | 14.74828 | 52 ft | 4 kts | 160° |
| 2026-05-05 07:46 | 55.06828 | 14.74848 | 53 ft | 8 kts | 170° |
| 2026-05-05 07:47 | 55.06750 | 14.74853 | 53 ft | 13 kts | 181° |
| 2026-05-05 07:47 | 55.06661 | 14.74849 | 53 ft | 12 kts | 182° |
| 2026-05-05 07:47 | 55.06631 | 14.74753 | 53 ft | 10 kts | 284° |
| 2026-05-05 07:47 | 55.06658 | 14.74647 | 51 ft | 9 kts | 295° |
| 2026-05-05 07:48 | 55.06688 | 14.74559 | 53 ft | 8 kts | 303° |
| 2026-05-05 07:48 | 55.06713 | 14.74487 | 53 ft | 4 kts | 280° |
| 2026-05-05 07:48 | 55.06695 | 14.74467 | 53 ft | 4 kts | 182° |
| 2026-05-05 07:48 | 55.06680 | 14.74517 | 53 ft | 5 kts | 92° |
| 2026-05-05 07:49 | 55.06676 | 14.74569 | 53 ft | 2 kts | 112° |
| 2026-05-05 07:49 | 55.06676 | 14.74570 | 53 ft | 0 kts | 112° |
| 2026-05-05 07:50 | 55.06667 | 14.74610 | 53 ft | 19 kts | 112° |
| 2026-05-05 07:50 | 55.06496 | 14.75294 | 54 ft | 100 kts | 114° |
| 2026-05-05 07:50 | 55.06128 | 14.76753 | 55 ft | 160 kts | 114° |
| 2026-05-05 07:50 | 55.05655 | 14.78529 | 740 ft | 155 kts | 114° |
| 2026-05-05 07:51 | 55.05217 | 14.80210 | 1544 ft | 154 kts | 114° |
| 2026-05-05 07:51 | 55.04780 | 14.81940 | 2073 ft | 163 kts | 114° |
| 2026-05-05 07:51 | 55.04299 | 14.83875 | 2318 ft | 185 kts | 114° |
| 2026-05-05 07:51 | 55.03761 | 14.86056 | 2547 ft | 206 kts | 114° |
| 2026-05-05 07:52 | 55.03106 | 14.88426 | 2707 ft | 229 kts | 126° |
| 2026-05-05 07:52 | 55.01817 | 14.90203 | 2905 ft | 250 kts | 162° |
| 2026-05-05 07:52 | 55.00075 | 14.90402 | 3469 ft | 257 kts | 191° |
| 2026-05-05 07:52 | 54.98298 | 14.89900 | 4253 ft | 261 kts | 191° |
| 2026-05-05 07:53 | 54.96489 | 14.89463 | 5059 ft | 264 kts | 191° |
| 2026-05-05 07:53 | 54.94660 | 14.89045 | 5836 ft | 267 kts | 192° |
| 2026-05-05 07:53 | 54.92814 | 14.88628 | 6617 ft | 269 kts | 192° |
| 2026-05-05 07:53 | 54.90949 | 14.88207 | 7356 ft | 271 kts | 192° |
| 2026-05-05 07:54 | 54.89074 | 14.87777 | 8096 ft | 273 kts | 193° |
| 2026-05-05 07:54 | 54.87185 | 14.87336 | 8840 ft | 275 kts | 193° |
| 2026-05-05 07:54 | 54.85280 | 14.86888 | 9563 ft | 277 kts | 192° |
| 2026-05-05 07:54 | 54.83357 | 14.86433 | 10206 ft | 283 kts | 192° |
| 2026-05-05 07:55 | 54.81325 | 14.86036 | 10363 ft | 307 kts | 186° |
| 2026-05-05 07:55 | 54.79102 | 14.86282 | 10496 ft | 333 kts | 174° |
| 2026-05-05 07:55 | 54.76794 | 14.87151 | 10939 ft | 343 kts | 172° |
| 2026-05-05 07:55 | 54.74445 | 14.88043 | 11566 ft | 347 kts | 172° |
| 2026-05-05 07:56 | 54.72078 | 14.88923 | 12228 ft | 349 kts | 172° |
| 2026-05-05 07:56 | 54.69694 | 14.89796 | 12883 ft | 352 kts | 172° |
| 2026-05-05 07:56 | 54.67289 | 14.90669 | 13550 ft | 354 kts | 172° |
| 2026-05-05 07:56 | 54.64871 | 14.91546 | 14157 ft | 357 kts | 172° |
| 2026-05-05 07:57 | 54.62431 | 14.92434 | 14740 ft | 359 kts | 172° |
| 2026-05-05 07:57 | 54.59980 | 14.93328 | 15317 ft | 361 kts | 172° |
| 2026-05-05 07:57 | 54.57518 | 14.94226 | 15930 ft | 362 kts | 172° |
| 2026-05-05 07:57 | 54.55047 | 14.95130 | 16536 ft | 364 kts | 172° |
| 2026-05-05 07:58 | 54.52565 | 14.96036 | 17110 ft | 366 kts | 172° |
| 2026-05-05 07:58 | 54.50068 | 14.96947 | 17674 ft | 368 kts | 172° |
| 2026-05-05 07:58 | 54.47551 | 14.97860 | 18216 ft | 371 kts | 173° |
| 2026-05-05 07:58 | 54.45020 | 14.98773 | 18685 ft | 373 kts | 173° |
| 2026-05-05 07:59 | 54.42504 | 14.99680 | 19130 ft | 376 kts | 173° |
| 2026-05-05 07:59 | 54.39936 | 15.00606 | 19573 ft | 378 kts | 173° |
| 2026-05-05 07:59 | 54.37349 | 15.01542 | 20017 ft | 381 kts | 173° |
| 2026-05-05 07:59 | 54.34743 | 15.02486 | 20450 ft | 384 kts | 173° |
| 2026-05-05 08:00 | 54.32121 | 15.03439 | 20863 ft | 387 kts | 173° |
| 2026-05-05 08:00 | 54.29477 | 15.04402 | 21278 ft | 390 kts | 173° |
| 2026-05-05 08:00 | 54.26813 | 15.05372 | 21668 ft | 393 kts | 173° |
| 2026-05-05 08:00 | 54.24123 | 15.06349 | 22091 ft | 396 kts | 173° |
| 2026-05-05 08:01 | 54.21417 | 15.07324 | 22506 ft | 399 kts | 173° |
| 2026-05-05 08:01 | 54.18689 | 15.08300 | 22914 ft | 402 kts | 173° |
| 2026-05-05 08:01 | 54.15947 | 15.09276 | 23326 ft | 404 kts | 173° |
| 2026-05-05 08:01 | 54.13184 | 15.10258 | 23703 ft | 407 kts | 173° |
| 2026-05-05 08:02 | 54.10408 | 15.11243 | 24065 ft | 409 kts | 173° |
| 2026-05-05 08:02 | 54.07617 | 15.12233 | 24430 ft | 410 kts | 173° |
| 2026-05-05 08:02 | 54.04818 | 15.13223 | 24792 ft | 412 kts | 173° |
| 2026-05-05 08:02 | 54.02013 | 15.14214 | 25176 ft | 412 kts | 173° |
| 2026-05-05 08:03 | 53.99201 | 15.15211 | 25548 ft | 414 kts | 173° |
| 2026-05-05 08:03 | 53.96376 | 15.16212 | 25904 ft | 415 kts | 173° |
| 2026-05-05 08:03 | 53.93546 | 15.17212 | 26253 ft | 416 kts | 173° |
| 2026-05-05 08:03 | 53.90704 | 15.18216 | 26602 ft | 418 kts | 173° |
| 2026-05-05 08:04 | 53.87849 | 15.19223 | 26939 ft | 419 kts | 173° |
| 2026-05-05 08:04 | 53.84987 | 15.20225 | 27283 ft | 421 kts | 174° |
| 2026-05-05 08:04 | 53.82114 | 15.21229 | 27641 ft | 422 kts | 174° |
| 2026-05-05 08:04 | 53.79229 | 15.22236 | 27985 ft | 424 kts | 174° |
| 2026-05-05 08:05 | 53.76338 | 15.23246 | 28269 ft | 425 kts | 174° |
| 2026-05-05 08:05 | 53.73438 | 15.24262 | 28579 ft | 427 kts | 173° |
| 2026-05-05 08:05 | 53.70523 | 15.25283 | 28877 ft | 428 kts | 173° |
| 2026-05-05 08:05 | 53.67602 | 15.26302 | 29171 ft | 430 kts | 174° |
| 2026-05-05 08:06 | 53.64667 | 15.27321 | 29476 ft | 431 kts | 174° |
| 2026-05-05 08:06 | 53.61727 | 15.28339 | 29781 ft | 432 kts | 174° |
| 2026-05-05 08:06 | 53.58775 | 15.29363 | 30058 ft | 434 kts | 173° |
| 2026-05-05 08:06 | 53.55860 | 15.30381 | 30399 ft | 433 kts | 173° |
| 2026-05-05 08:07 | 53.52878 | 15.31426 | 30744 ft | 432 kts | 174° |
| 2026-05-05 08:07 | 53.49980 | 15.32442 | 31050 ft | 431 kts | 173° |
| 2026-05-05 08:07 | 53.47074 | 15.33773 | 31388 ft | 437 kts | 165° |
| 2026-05-05 08:07 | 53.44268 | 15.35814 | 31756 ft | 440 kts | 161° |
| 2026-05-05 08:08 | 53.41492 | 15.37967 | 32105 ft | 440 kts | 161° |
| 2026-05-05 08:08 | 53.38717 | 15.40106 | 32509 ft | 439 kts | 161° |
| 2026-05-05 08:08 | 53.35941 | 15.42233 | 32895 ft | 438 kts | 161° |
| 2026-05-05 08:08 | 53.33171 | 15.44345 | 33234 ft | 438 kts | 161° |
| 2026-05-05 08:09 | 53.30398 | 15.46455 | 33559 ft | 437 kts | 162° |
| 2026-05-05 08:09 | 53.27634 | 15.48560 | 33873 ft | 437 kts | 161° |
| 2026-05-05 08:09 | 53.25767 | 15.49986 | 34066 ft | 437 kts | 161° |
| 2026-05-05 08:09 | 53.23008 | 15.52097 | 34285 ft | 437 kts | 161° |
| 2026-05-05 08:10 | 53.20241 | 15.54209 | 34535 ft | 438 kts | 161° |
| 2026-05-05 08:10 | 53.17503 | 15.56290 | 34799 ft | 438 kts | 161° |
| 2026-05-05 08:10 | 53.14685 | 15.58428 | 34905 ft | 439 kts | 161° |
| 2026-05-05 08:10 | 53.11953 | 15.60500 | 34930 ft | 436 kts | 161° |
| 2026-05-05 08:11 | 53.06402 | 15.64702 | 34925 ft | 435 kts | 161° |
| 2026-05-05 08:11 | 53.00929 | 15.68835 | 34924 ft | 435 kts | 161° |
| 2026-05-05 08:12 | 52.95419 | 15.72981 | 34919 ft | 435 kts | 161° |
| 2026-05-05 08:12 | 52.89906 | 15.77115 | 34921 ft | 435 kts | 161° |
| 2026-05-05 08:13 | 52.84389 | 15.81231 | 34917 ft | 435 kts | 161° |
| 2026-05-05 08:13 | 52.78842 | 15.85189 | 34897 ft | 433 kts | 163° |
| 2026-05-05 08:14 | 52.73206 | 15.88609 | 34901 ft | 431 kts | 166° |
| 2026-05-05 08:14 | 52.67541 | 15.91868 | 34902 ft | 431 kts | 165° |
| 2026-05-05 08:15 | 52.61901 | 15.95210 | 34887 ft | 431 kts | 165° |
| 2026-05-05 08:15 | 52.56274 | 15.98612 | 34886 ft | 431 kts | 165° |
| 2026-05-05 08:16 | 52.50644 | 16.02023 | 34892 ft | 431 kts | 165° |
| 2026-05-05 08:16 | 52.45009 | 16.05413 | 34892 ft | 431 kts | 165° |
| 2026-05-05 08:17 | 52.39369 | 16.08779 | 34879 ft | 431 kts | 165° |
| 2026-05-05 08:17 | 52.33730 | 16.12146 | 34883 ft | 431 kts | 165° |
| 2026-05-05 08:18 | 52.28090 | 16.15498 | 34889 ft | 431 kts | 165° |
| 2026-05-05 08:18 | 52.22449 | 16.18835 | 34884 ft | 431 kts | 165° |
| 2026-05-05 08:19 | 52.16811 | 16.22165 | 34888 ft | 431 kts | 165° |
| 2026-05-05 08:19 | 52.11168 | 16.25503 | 34873 ft | 431 kts | 165° |
| 2026-05-05 08:20 | 52.05527 | 16.28825 | 34878 ft | 431 kts | 165° |
| 2026-05-05 08:20 | 51.99880 | 16.32127 | 34877 ft | 432 kts | 165° |
| 2026-05-05 08:21 | 51.94229 | 16.35436 | 34869 ft | 431 kts | 165° |
| 2026-05-05 08:21 | 51.88584 | 16.38731 | 34870 ft | 431 kts | 165° |
| 2026-05-05 08:22 | 51.82936 | 16.42012 | 34858 ft | 431 kts | 164° |
| 2026-05-05 08:22 | 51.77288 | 16.45300 | 34859 ft | 431 kts | 164° |
| 2026-05-05 08:23 | 51.71640 | 16.48580 | 34878 ft | 432 kts | 165° |
| 2026-05-05 08:23 | 51.65983 | 16.51836 | 34875 ft | 432 kts | 165° |
| 2026-05-05 08:24 | 51.60325 | 16.55088 | 34875 ft | 432 kts | 165° |
| 2026-05-05 08:24 | 51.54668 | 16.58343 | 34863 ft | 432 kts | 164° |
| 2026-05-05 08:25 | 51.49005 | 16.61584 | 34856 ft | 433 kts | 164° |
| 2026-05-05 08:25 | 51.43331 | 16.64819 | 34858 ft | 433 kts | 164° |
| 2026-05-05 08:26 | 51.37656 | 16.68055 | 34863 ft | 433 kts | 164° |
| 2026-05-05 08:26 | 51.31972 | 16.71296 | 34851 ft | 433 kts | 164° |
| 2026-05-05 08:27 | 51.26292 | 16.74523 | 34852 ft | 434 kts | 164° |
| 2026-05-05 08:27 | 51.20598 | 16.77743 | 34856 ft | 434 kts | 164° |
| 2026-05-05 08:28 | 51.14939 | 16.80924 | 34858 ft | 434 kts | 164° |
| 2026-05-05 08:28 | 51.09240 | 16.84123 | 34852 ft | 434 kts | 164° |
| 2026-05-05 08:29 | 51.03546 | 16.87324 | 34843 ft | 434 kts | 164° |
| 2026-05-05 08:30 | 50.95014 | 16.92089 | 34854 ft | 433 kts | 164° |
| 2026-05-05 08:30 | 50.89321 | 16.95256 | 34860 ft | 433 kts | 164° |
| 2026-05-05 08:31 | 50.83632 | 16.98413 | 34863 ft | 433 kts | 164° |
| 2026-05-05 08:31 | 50.77942 | 17.01566 | 34859 ft | 434 kts | 164° |
| 2026-05-05 08:32 | 50.72259 | 17.04710 | 34861 ft | 434 kts | 164° |
| 2026-05-05 08:32 | 50.66558 | 17.07851 | 34850 ft | 434 kts | 164° |
| 2026-05-05 08:33 | 50.60852 | 17.10984 | 34853 ft | 434 kts | 164° |
| 2026-05-05 08:33 | 50.55148 | 17.14115 | 34856 ft | 434 kts | 164° |
| 2026-05-05 08:34 | 50.49441 | 17.17238 | 34851 ft | 434 kts | 164° |
| 2026-05-05 08:34 | 50.43733 | 17.20351 | 34858 ft | 434 kts | 164° |
| 2026-05-05 08:35 | 50.38025 | 17.23470 | 34875 ft | 434 kts | 164° |
| 2026-05-05 08:35 | 50.32321 | 17.26572 | 34876 ft | 434 kts | 164° |
| 2026-05-05 08:36 | 50.26610 | 17.29659 | 34855 ft | 434 kts | 164° |
| 2026-05-05 08:36 | 50.20894 | 17.32744 | 34876 ft | 434 kts | 164° |
| 2026-05-05 08:37 | 50.15179 | 17.35831 | 34879 ft | 435 kts | 164° |
| 2026-05-05 08:37 | 50.09464 | 17.38902 | 34885 ft | 435 kts | 164° |
| 2026-05-05 08:38 | 50.03743 | 17.41969 | 34884 ft | 435 kts | 164° |
| 2026-05-05 08:38 | 49.98017 | 17.45033 | 34887 ft | 435 kts | 164° |
| 2026-05-05 08:39 | 49.92290 | 17.48089 | 34887 ft | 435 kts | 164° |
| 2026-05-05 08:39 | 49.86551 | 17.51131 | 34877 ft | 437 kts | 164° |
| 2026-05-05 08:40 | 49.80804 | 17.54186 | 34891 ft | 437 kts | 165° |
| 2026-05-05 08:40 | 49.75060 | 17.57242 | 34899 ft | 436 kts | 164° |
| 2026-05-05 08:41 | 49.69311 | 17.60272 | 34901 ft | 436 kts | 164° |
| 2026-05-05 08:41 | 49.63565 | 17.63285 | 34899 ft | 436 kts | 164° |
| 2026-05-05 08:42 | 49.57851 | 17.66301 | 34898 ft | 437 kts | 164° |
| 2026-05-05 08:42 | 49.52100 | 17.69324 | 34900 ft | 437 kts | 164° |
| 2026-05-05 08:43 | 49.46349 | 17.72319 | 34902 ft | 436 kts | 164° |
| 2026-05-05 08:43 | 49.40609 | 17.75311 | 34903 ft | 435 kts | 164° |
| 2026-05-05 08:44 | 49.34879 | 17.78293 | 34899 ft | 434 kts | 164° |
| 2026-05-05 08:44 | 49.29155 | 17.81262 | 34895 ft | 434 kts | 165° |
| 2026-05-05 08:45 | 49.23425 | 17.84225 | 34891 ft | 435 kts | 164° |
| 2026-05-05 08:45 | 49.17696 | 17.87188 | 34899 ft | 433 kts | 164° |
| 2026-05-05 08:46 | 49.11989 | 17.90133 | 34895 ft | 433 kts | 164° |
| 2026-05-05 08:46 | 49.06283 | 17.93062 | 34885 ft | 433 kts | 165° |
| 2026-05-05 08:47 | 49.00487 | 17.95305 | 34875 ft | 428 kts | 178° |
| 2026-05-05 08:47 | 48.94568 | 17.96111 | 34884 ft | 427 kts | 178° |
| 2026-05-05 08:48 | 48.88645 | 17.96929 | 34899 ft | 428 kts | 177° |
| 2026-05-05 08:48 | 48.82703 | 17.97755 | 34912 ft | 429 kts | 178° |
| 2026-05-05 08:49 | 48.76760 | 17.98578 | 34925 ft | 429 kts | 178° |
| 2026-05-05 08:49 | 48.70816 | 17.99397 | 34939 ft | 429 kts | 177° |
| 2026-05-05 08:50 | 48.64870 | 18.00202 | 34943 ft | 429 kts | 178° |
| 2026-05-05 08:50 | 48.58920 | 18.01010 | 34942 ft | 429 kts | 178° |
| 2026-05-05 08:51 | 48.53008 | 18.01816 | 34930 ft | 429 kts | 177° |
| 2026-05-05 08:51 | 48.47049 | 18.02632 | 34909 ft | 430 kts | 178° |
| 2026-05-05 08:52 | 48.41085 | 18.03440 | 34914 ft | 431 kts | 178° |
| 2026-05-05 08:52 | 48.35106 | 18.04240 | 34912 ft | 432 kts | 177° |
| 2026-05-05 08:53 | 48.29130 | 18.05228 | 34912 ft | 434 kts | 170° |
| 2026-05-05 08:53 | 48.23340 | 18.07941 | 34913 ft | 437 kts | 163° |
| 2026-05-05 08:54 | 48.17571 | 18.10896 | 34927 ft | 438 kts | 164° |
| 2026-05-05 08:54 | 48.11798 | 18.13841 | 34930 ft | 438 kts | 164° |
| 2026-05-05 08:55 | 48.06022 | 18.16763 | 34928 ft | 438 kts | 164° |
| 2026-05-05 08:55 | 48.01217 | 18.19177 | 34931 ft | 438 kts | 164° |
| 2026-05-05 08:56 | 47.95431 | 18.22093 | 34935 ft | 439 kts | 163° |
| 2026-05-05 08:56 | 47.89640 | 18.25014 | 34952 ft | 439 kts | 163° |
| 2026-05-05 08:57 | 47.83845 | 18.27929 | 34945 ft | 440 kts | 163° |
| 2026-05-05 08:57 | 47.78048 | 18.30834 | 34949 ft | 439 kts | 163° |
| 2026-05-05 08:58 | 47.72315 | 18.33983 | 34968 ft | 441 kts | 156° |
| 2026-05-05 08:58 | 47.66801 | 18.37950 | 34955 ft | 441 kts | 156° |
| 2026-05-05 08:59 | 47.61270 | 18.41916 | 34961 ft | 442 kts | 157° |
| 2026-05-05 08:59 | 47.55726 | 18.45880 | 34958 ft | 443 kts | 157° |
| 2026-05-05 09:00 | 47.50175 | 18.49842 | 34972 ft | 443 kts | 157° |
| 2026-05-05 09:00 | 47.44628 | 18.53803 | 34974 ft | 443 kts | 157° |
| 2026-05-05 09:01 | 47.39078 | 18.57756 | 34978 ft | 443 kts | 157° |
| 2026-05-05 09:01 | 47.33513 | 18.61688 | 34979 ft | 443 kts | 156° |
| 2026-05-05 09:02 | 47.27915 | 18.65496 | 34979 ft | 443 kts | 159° |
| 2026-05-05 09:02 | 47.22188 | 18.68848 | 34991 ft | 443 kts | 161° |
| 2026-05-05 09:03 | 47.16421 | 18.72049 | 34991 ft | 443 kts | 161° |
| 2026-05-05 09:03 | 47.10676 | 18.75325 | 34995 ft | 443 kts | 160° |
| 2026-05-05 09:04 | 47.04944 | 18.78672 | 34993 ft | 443 kts | 160° |
| 2026-05-05 09:04 | 46.99207 | 18.82006 | 34993 ft | 444 kts | 160° |
| 2026-05-05 09:05 | 46.93451 | 18.85324 | 35001 ft | 445 kts | 160° |
| 2026-05-05 09:05 | 46.87689 | 18.88644 | 35005 ft | 445 kts | 160° |
| 2026-05-05 09:06 | 46.81972 | 18.91935 | 35010 ft | 444 kts | 160° |
| 2026-05-05 09:06 | 46.76209 | 18.95224 | 35008 ft | 445 kts | 160° |
| 2026-05-05 09:07 | 46.70445 | 18.98526 | 35005 ft | 445 kts | 160° |
| 2026-05-05 09:07 | 46.64680 | 19.01818 | 35011 ft | 445 kts | 160° |
| 2026-05-05 09:08 | 46.58911 | 19.05103 | 35009 ft | 446 kts | 160° |
| 2026-05-05 09:08 | 46.53134 | 19.08386 | 35013 ft | 446 kts | 160° |
| 2026-05-05 09:09 | 46.47345 | 19.11663 | 35013 ft | 446 kts | 160° |
| 2026-05-05 09:09 | 46.41558 | 19.14931 | 35015 ft | 446 kts | 160° |
| 2026-05-05 09:10 | 46.35772 | 19.18193 | 35007 ft | 446 kts | 160° |
| 2026-05-05 09:10 | 46.29986 | 19.21449 | 35006 ft | 446 kts | 160° |
| 2026-05-05 09:11 | 46.24188 | 19.24703 | 35010 ft | 447 kts | 160° |
| 2026-05-05 09:11 | 46.18390 | 19.27950 | 35015 ft | 447 kts | 160° |
| 2026-05-05 09:12 | 46.12591 | 19.31194 | 35009 ft | 447 kts | 160° |
| 2026-05-05 09:12 | 46.06787 | 19.34430 | 35011 ft | 447 kts | 161° |
| 2026-05-05 09:13 | 46.01236 | 19.38465 | 35008 ft | 449 kts | 151° |
| 2026-05-05 09:13 | 45.95830 | 19.42971 | 35008 ft | 449 kts | 151° |
| 2026-05-05 09:14 | 45.90408 | 19.47458 | 35003 ft | 450 kts | 151° |
| 2026-05-05 09:14 | 45.84979 | 19.51942 | 35001 ft | 451 kts | 152° |
| 2026-05-05 09:15 | 45.79534 | 19.56431 | 35007 ft | 452 kts | 152° |
| 2026-05-05 09:15 | 45.74080 | 19.60908 | 35014 ft | 452 kts | 152° |
| 2026-05-05 09:16 | 45.68625 | 19.65379 | 35019 ft | 452 kts | 152° |
| 2026-05-05 09:16 | 45.63213 | 19.69804 | 35006 ft | 451 kts | 152° |
| 2026-05-05 09:17 | 45.57751 | 19.74251 | 35007 ft | 452 kts | 152° |
| 2026-05-05 09:17 | 45.52290 | 19.78700 | 35017 ft | 453 kts | 152° |
| 2026-05-05 09:18 | 45.46821 | 19.83160 | 35011 ft | 453 kts | 152° |
| 2026-05-05 09:18 | 45.41345 | 19.87607 | 35012 ft | 454 kts | 152° |
| 2026-05-05 09:19 | 45.35849 | 19.92045 | 35018 ft | 455 kts | 152° |
| 2026-05-05 09:19 | 45.30340 | 19.96485 | 35021 ft | 455 kts | 152° |
| 2026-05-05 09:20 | 45.24828 | 20.00932 | 35019 ft | 456 kts | 152° |
| 2026-05-05 09:20 | 45.19312 | 20.05363 | 35024 ft | 456 kts | 152° |
| 2026-05-05 09:21 | 45.13791 | 20.09775 | 35016 ft | 456 kts | 152° |
| 2026-05-05 09:21 | 45.08260 | 20.14199 | 35020 ft | 457 kts | 152° |
| 2026-05-05 09:22 | 45.02727 | 20.18637 | 35027 ft | 458 kts | 152° |
| 2026-05-05 09:22 | 44.97182 | 20.23058 | 35042 ft | 457 kts | 152° |
| 2026-05-05 09:23 | 44.91627 | 20.27455 | 35046 ft | 458 kts | 152° |
| 2026-05-05 09:23 | 44.86074 | 20.31850 | 35049 ft | 458 kts | 152° |
| 2026-05-05 09:24 | 44.80515 | 20.36248 | 35049 ft | 458 kts | 152° |
| 2026-05-05 09:24 | 44.74957 | 20.40639 | 35050 ft | 458 kts | 152° |
| 2026-05-05 09:25 | 44.69393 | 20.45017 | 35033 ft | 458 kts | 152° |
| 2026-05-05 09:25 | 44.63822 | 20.49398 | 35041 ft | 459 kts | 152° |
| 2026-05-05 09:26 | 44.58248 | 20.53767 | 35032 ft | 459 kts | 152° |
| 2026-05-05 09:26 | 44.52666 | 20.58134 | 35042 ft | 460 kts | 152° |
| 2026-05-05 09:27 | 44.47077 | 20.62495 | 35033 ft | 460 kts | 152° |
| 2026-05-05 09:27 | 44.41486 | 20.66852 | 35039 ft | 460 kts | 152° |
| 2026-05-05 09:28 | 44.35882 | 20.71201 | 35042 ft | 461 kts | 152° |
| 2026-05-05 09:28 | 44.30268 | 20.75559 | 35048 ft | 462 kts | 152° |
| 2026-05-05 09:29 | 44.24639 | 20.79904 | 35049 ft | 462 kts | 152° |
| 2026-05-05 09:29 | 44.19008 | 20.84245 | 35050 ft | 463 kts | 152° |
| 2026-05-05 09:30 | 44.13368 | 20.88596 | 35058 ft | 464 kts | 152° |
| 2026-05-05 09:30 | 44.07723 | 20.92941 | 35059 ft | 464 kts | 152° |
| 2026-05-05 09:31 | 44.02061 | 20.97281 | 35064 ft | 465 kts | 152° |
| 2026-05-05 09:31 | 43.96393 | 21.01615 | 35058 ft | 465 kts | 152° |
| 2026-05-05 09:32 | 43.90713 | 21.05963 | 35054 ft | 467 kts | 152° |
| 2026-05-05 09:32 | 43.85018 | 21.10310 | 35072 ft | 467 kts | 152° |
| 2026-05-05 09:33 | 43.79311 | 21.14650 | 35073 ft | 468 kts | 152° |
| 2026-05-05 09:33 | 43.73602 | 21.18975 | 35069 ft | 468 kts | 152° |
| 2026-05-05 09:34 | 43.67916 | 21.23273 | 35074 ft | 469 kts | 152° |
| 2026-05-05 09:34 | 43.62187 | 21.27586 | 35086 ft | 469 kts | 152° |
| 2026-05-05 09:35 | 43.56452 | 21.31907 | 35080 ft | 470 kts | 152° |
| 2026-05-05 09:35 | 43.47832 | 21.38391 | 35080 ft | 471 kts | 152° |
| 2026-05-05 09:36 | 43.42074 | 21.42699 | 35079 ft | 471 kts | 152° |
| 2026-05-05 09:36 | 43.36318 | 21.47002 | 35092 ft | 471 kts | 152° |
| 2026-05-05 09:37 | 43.30565 | 21.51315 | 35073 ft | 472 kts | 152° |
| 2026-05-05 09:37 | 43.24790 | 21.55619 | 35083 ft | 472 kts | 152° |
| 2026-05-05 09:38 | 43.19002 | 21.59903 | 35084 ft | 473 kts | 152° |
| 2026-05-05 09:38 | 43.13219 | 21.64178 | 35087 ft | 473 kts | 152° |
| 2026-05-05 09:39 | 43.07435 | 21.68466 | 35078 ft | 473 kts | 152° |
| 2026-05-05 09:39 | 43.01644 | 21.72757 | 35082 ft | 474 kts | 152° |
| 2026-05-05 09:40 | 42.95837 | 21.77038 | 35094 ft | 475 kts | 152° |
| 2026-05-05 09:40 | 42.90019 | 21.81312 | 35102 ft | 475 kts | 152° |
| 2026-05-05 09:41 | 42.85182 | 21.84851 | 35100 ft | 475 kts | 152° |
| 2026-05-05 09:41 | 42.79352 | 21.89109 | 35098 ft | 476 kts | 152° |
| 2026-05-05 09:42 | 42.72557 | 21.94064 | 35107 ft | 477 kts | 152° |
| 2026-05-05 09:42 | 42.67662 | 21.97637 | 35111 ft | 477 kts | 152° |
| 2026-05-05 09:43 | 42.61814 | 22.01896 | 35108 ft | 477 kts | 152° |
| 2026-05-05 09:43 | 42.56006 | 22.06115 | 35109 ft | 477 kts | 153° |
| 2026-05-05 09:44 | 42.50119 | 22.10367 | 35112 ft | 476 kts | 153° |
| 2026-05-05 09:44 | 42.44268 | 22.14596 | 35130 ft | 477 kts | 152° |
| 2026-05-05 09:45 | 42.38454 | 22.18796 | 35115 ft | 477 kts | 152° |
| 2026-05-05 09:45 | 42.32596 | 22.23011 | 35108 ft | 478 kts | 153° |
| 2026-05-05 09:46 | 42.26431 | 22.26282 | 35098 ft | 476 kts | 163° |
| 2026-05-05 09:46 | 42.20150 | 22.29124 | 35109 ft | 476 kts | 163° |
| 2026-05-05 09:47 | 42.19087 | 22.29608 | 35100 ft | 477 kts | 163° |
| 2026-05-05 09:48 | 42.00833 | 22.37904 | 35111 ft | 478 kts | 163° |
| 2026-05-05 09:48 | 41.94521 | 22.40737 | 35106 ft | 478 kts | 163° |
| 2026-05-05 09:49 | 41.88200 | 22.43578 | 35110 ft | 479 kts | 163° |
| 2026-05-05 09:49 | 41.81920 | 22.46412 | 35122 ft | 480 kts | 163° |
| 2026-05-05 09:50 | 41.79780 | 22.47375 | 35120 ft | 480 kts | 163° |